Time;durP1;ratioP1;P1;durP2;ratioP2;P2;SDS_P1;SDS_P2;PMS_P1;PMS_P2;Temp;Humidity;BMP_temperature;BMP_pressure;BME280_temperature;BME280_humidity;BME280_pressure;Samples;Min_cycle;Max_cycle;Signal;HPM_P1;HPM_P2
2021/11/16 00:01:25;;;;;;;20.45;12.25;;;;;13.30;102403.00;;;;5035471;28;20200;-85
2021/11/16 00:03:52;;;;;;;23.00;12.57;;;;;13.20;102401.00;;;;5041287;28;20188;-85
2021/11/16 00:06:21;;;;;;;25.08;12.70;;;;;13.30;102403.00;;;;5036325;28;20203;-85
2021/11/16 00:08:49;;;;;;;24.45;11.55;;;;;13.30;102389.00;;;;5036336;28;20250;-85
2021/11/16 00:11:17;;;;;;;30.85;12.50;;;;;13.30;102396.00;;;;5048141;28;20194;-85
2021/11/16 00:13:45;;;;;;;24.13;13.02;;;;;13.30;102397.00;;;;5031801;28;20204;-85
2021/11/16 00:16:12;;;;;;;20.30;11.85;;;;;13.30;102396.00;;;;5043060;28;20203;-86
2021/11/16 00:18:42;;;;;;;23.73;11.93;;;;;13.30;102383.00;;;;5036343;28;20199;-85
2021/11/16 00:21:12;;;;;;;23.83;12.85;;;;;13.30;102376.00;;;;5038100;28;20201;-85
2021/11/16 00:23:40;;;;;;;21.02;12.93;;;;;13.30;102385.00;;;;5038303;28;20288;-85
2021/11/16 00:26:12;;;;;;;22.92;12.45;;;;;13.30;102376.00;;;;5038371;28;20196;-84
2021/11/16 00:28:41;;;;;;;21.45;12.40;;;;;13.30;102378.00;;;;5043333;28;20200;-86
2021/11/16 00:31:08;;;;;;;21.45;12.27;;;;;13.30;102378.00;;;;5049601;28;20203;-86
2021/11/16 00:33:35;;;;;;;21.73;11.48;;;;;13.30;102375.00;;;;5035160;28;20209;-83
2021/11/16 00:36:03;;;;;;;21.38;12.15;;;;;13.30;102372.00;;;;5049888;28;20199;-84
2021/11/16 00:38:30;;;;;;;22.20;11.18;;;;;13.30;102372.00;;;;5045206;28;20207;-84
2021/11/16 00:40:58;;;;;;;26.48;13.75;;;;;13.30;102365.00;;;;5037537;28;20216;-84
2021/11/16 00:43:27;;;;;;;27.60;14.60;;;;;13.30;102367.00;;;;5039630;28;20200;-84
2021/11/16 00:45:56;;;;;;;23.58;12.13;;;;;13.30;102365.00;;;;5042428;28;20204;-84
2021/11/16 00:48:25;;;;;;;23.30;12.48;;;;;13.30;102361.00;;;;5045550;28;20258;-84
2021/11/16 00:50:56;;;;;;;22.88;13.35;;;;;13.30;102358.00;;;;5042714;28;20270;-84
2021/11/16 00:53:25;;;;;;;20.70;10.98;;;;;13.30;102356.00;;;;5034743;28;20258;-83
2021/11/16 00:55:53;;;;;;;23.73;12.30;;;;;13.30;102360.00;;;;5041794;28;20220;-83
2021/11/16 00:58:20;;;;;;;21.20;11.85;;;;;13.30;102356.00;;;;5044723;28;20195;-84
2021/11/16 01:00:49;;;;;;;23.25;12.18;;;;;13.30;102358.00;;;;5036174;28;20203;-84
2021/11/16 01:03:18;;;;;;;24.67;13.70;;;;;13.30;102352.00;;;;5044197;28;20219;-84
2021/11/16 01:05:46;;;;;;;25.20;13.07;;;;;13.30;102353.00;;;;5049635;28;20191;-83
2021/11/16 01:08:14;;;;;;;22.00;12.48;;;;;13.30;102351.00;;;;5033922;28;20665;-83
2021/11/16 01:10:43;;;;;;;24.13;13.38;;;;;13.30;102349.00;;;;5050293;28;20223;-84
2021/11/16 01:13:11;;;;;;;23.65;12.73;;;;;13.30;102348.00;;;;5038002;28;20700;-84
2021/11/16 01:15:40;;;;;;;26.42;13.68;;;;;13.30;102342.00;;;;5045282;28;20219;-84
2021/11/16 01:18:10;;;;;;;22.70;12.68;;;;;13.30;102349.00;;;;5034336;28;20625;-84
2021/11/16 01:20:37;;;;;;;22.10;12.43;;;;;13.30;102348.00;;;;5041722;28;20211;-84
2021/11/16 01:23:07;;;;;;;24.92;12.30;;;;;13.30;102349.00;;;;5047325;28;20215;-84
2021/11/16 01:25:37;;;;;;;20.77;11.82;;;;;13.30;102342.00;;;;5032275;28;20208;-84
2021/11/16 01:28:08;;;;;;;23.67;13.45;;;;;13.30;102356.00;;;;5033582;28;20218;-84
2021/11/16 01:30:36;;;;;;;21.92;12.00;;;;;13.30;102343.00;;;;5039103;28;20312;-83
2021/11/16 01:33:05;;;;;;;21.40;12.23;;;;;13.30;102340.00;;;;5044975;28;21832;-84
2021/11/16 01:35:35;;;;;;;20.25;11.00;;;;;13.30;102343.00;;;;5044517;28;20253;-84
2021/11/16 01:38:03;;;;;;;24.73;13.25;;;;;13.30;102336.00;;;;5048023;28;20195;-84
2021/11/16 01:40:31;;;;;;;21.15;10.88;;;;;13.30;102339.00;;;;5048684;28;20203;-84
2021/11/16 01:42:59;;;;;;;21.83;12.75;;;;;13.30;102335.00;;;;5038175;28;20207;-84
2021/11/16 01:45:27;;;;;;;23.95;12.18;;;;;13.30;102331.00;;;;5038320;28;20235;-84
2021/11/16 01:47:54;;;;;;;21.73;12.77;;;;;13.30;102339.00;;;;5045678;28;20262;-84
2021/11/16 01:50:24;;;;;;;21.60;12.63;;;;;13.30;102329.00;;;;5049320;28;20259;-84
2021/11/16 01:52:53;;;;;;;22.20;12.60;;;;;13.30;102327.00;;;;5048231;28;20199;-84
2021/11/16 01:55:23;;;;;;;23.70;12.60;;;;;13.30;102330.00;;;;5033770;28;20202;-84
2021/11/16 01:57:51;;;;;;;25.83;13.20;;;;;13.30;102331.00;;;;5029718;28;20195;-84
2021/11/16 02:00:22;;;;;;;24.73;13.27;;;;;13.30;102330.00;;;;5034810;28;20208;-84
2021/11/16 02:02:49;;;;;;;19.40;11.70;;;;;13.30;102331.00;;;;5035538;28;20204;-84
2021/11/16 02:05:17;;;;;;;21.55;12.70;;;;;13.30;102329.00;;;;5043820;28;20203;-84
2021/11/16 02:07:46;;;;;;;24.05;13.65;;;;;13.30;102325.00;;;;5049061;28;20202;-84
2021/11/16 02:10:16;;;;;;;24.77;13.73;;;;;13.30;102328.00;;;;5046588;28;20226;-83
2021/11/16 02:12:43;;;;;;;22.02;11.60;;;;;13.30;102325.00;;;;5047321;28;20676;-84
2021/11/16 02:15:11;;;;;;;22.52;12.10;;;;;13.30;102323.00;;;;5035119;28;20196;-84
2021/11/16 02:17:39;;;;;;;22.67;13.00;;;;;13.30;102319.00;;;;5044302;28;20238;-84
2021/11/16 02:20:08;;;;;;;21.23;12.05;;;;;13.30;102327.00;;;;5044247;28;20203;-84
2021/11/16 02:22:37;;;;;;;23.67;13.45;;;;;13.30;102309.00;;;;5033832;28;20223;-83
2021/11/16 02:25:06;;;;;;;21.58;12.27;;;;;13.30;102325.00;;;;5046827;28;20851;-84
2021/11/16 02:27:33;;;;;;;19.58;11.57;;;;;13.30;102314.00;;;;5039020;28;20204;-84
2021/11/16 02:30:00;;;;;;;22.63;12.07;;;;;13.30;102308.00;;;;5043551;28;20230;-84
2021/11/16 02:32:27;;;;;;;23.58;11.85;;;;;13.30;102313.00;;;;5046124;28;20199;-84
2021/11/16 02:34:55;;;;;;;22.98;13.20;;;;;13.30;102312.00;;;;5033369;28;20570;-83
2021/11/16 02:37:22;;;;;;;24.67;13.05;;;;;13.30;102314.00;;;;5031560;28;20203;-84
2021/11/16 02:39:50;;;;;;;27.15;13.75;;;;;13.30;102310.00;;;;5033495;28;20216;-84
2021/11/16 02:42:20;;;;;;;22.45;12.40;;;;;13.30;102296.00;;;;5039085;28;20200;-84
2021/11/16 02:44:47;;;;;;;22.08;11.82;;;;;13.30;102307.00;;;;5038126;28;20249;-84
2021/11/16 02:47:15;;;;;;;23.52;11.52;;;;;13.30;102304.00;;;;5044219;28;20203;-84
2021/11/16 02:49:42;;;;;;;22.25;11.93;;;;;13.30;102308.00;;;;5032327;28;20224;-83
2021/11/16 02:52:13;;;;;;;21.13;11.88;;;;;13.30;102295.00;;;;5040147;28;20689;-84
2021/11/16 02:54:41;;;;;;;23.88;12.15;;;;;13.30;102290.00;;;;5045121;28;20554;-84
2021/11/16 02:57:11;;;;;;;23.50;13.00;;;;;13.30;102297.00;;;;5035470;28;20200;-84
2021/11/16 02:59:39;;;;;;;19.95;10.98;;;;;13.30;102299.00;;;;5043626;28;20195;-84
2021/11/16 03:02:06;;;;;;;20.67;12.38;;;;;13.30;102308.00;;;;5043840;28;20207;-83
2021/11/16 03:04:34;;;;;;;21.83;12.40;;;;;13.30;102295.00;;;;5034179;28;20208;-84
2021/11/16 03:07:02;;;;;;;19.35;10.88;;;;;13.30;102300.00;;;;5038808;28;20211;-84
2021/11/16 03:09:31;;;;;;;20.40;12.05;;;;;13.30;102296.00;;;;5035411;28;20572;-84
2021/11/16 03:11:59;;;;;;;24.75;12.27;;;;;13.30;102299.00;;;;5036077;28;20682;-83
2021/11/16 03:14:29;;;;;;;24.23;11.98;;;;;13.30;102297.00;;;;5043935;28;20196;-84
2021/11/16 03:16:57;;;;;;;20.05;11.00;;;;;13.30;102294.00;;;;5042309;28;20205;-84
2021/11/16 03:19:25;;;;;;;20.00;11.43;;;;;13.30;102286.00;;;;5043269;28;20671;-84
2021/11/16 03:21:56;;;;;;;22.20;10.75;;;;;13.30;102290.00;;;;5039382;28;20220;-84
2021/11/16 03:24:25;;;;;;;19.02;8.98;;;;;13.20;102296.00;;;;5035317;28;20210;-84
2021/11/16 03:26:53;;;;;;;19.38;10.38;;;;;13.20;102286.00;;;;5038620;28;20200;-84
2021/11/16 03:29:23;;;;;;;17.45;10.05;;;;;13.20;102294.00;;;;5046553;28;20577;-84
2021/11/16 03:32:00;;;;;;;19.98;9.80;;;;;13.20;102293.00;;;;5034743;28;20230;-84
2021/11/16 03:34:29;;;;;;;23.17;10.55;;;;;13.20;102292.00;;;;5037799;28;20211;-84
2021/11/16 03:36:56;;;;;;;18.55;9.90;;;;;13.20;102297.00;;;;5029459;28;20204;-84
2021/11/16 03:39:24;;;;;;;19.23;10.95;;;;;13.20;102297.00;;;;5040767;28;20203;-84
2021/11/16 03:41:52;;;;;;;15.18;8.30;;;;;13.20;102290.00;;;;5043136;28;20196;-85
2021/11/16 03:44:20;;;;;;;16.88;9.70;;;;;13.20;102293.00;;;;5032016;28;20204;-85
2021/11/16 03:46:47;;;;;;;18.98;9.82;;;;;13.20;102284.00;;;;5032319;28;20211;-85
2021/11/16 03:49:16;;;;;;;24.48;10.07;;;;;13.10;102285.00;;;;5041797;28;20631;-84
2021/11/16 03:51:45;;;;;;;18.42;10.43;;;;;13.10;102289.00;;;;5045124;28;20231;-85
2021/11/16 03:54:13;;;;;;;21.13;10.90;;;;;13.10;102290.00;;;;5029424;28;20204;-84
2021/11/16 03:56:41;;;;;;;19.77;10.23;;;;;13.10;102282.00;;;;5026801;28;20212;-84
2021/11/16 03:59:09;;;;;;;21.08;10.43;;;;;13.10;102281.00;;;;5026986;28;20204;-85
2021/11/16 04:01:37;;;;;;;20.55;10.73;;;;;13.10;102284.00;;;;5026903;28;20258;-84
2021/11/16 04:04:06;;;;;;;20.63;11.07;;;;;13.10;102286.00;;;;5046268;28;20195;-85
2021/11/16 04:06:35;;;;;;;20.58;10.75;;;;;13.10;102286.00;;;;5045693;28;20204;-85
2021/11/16 04:09:04;;;;;;;19.35;9.45;;;;;13.10;102289.00;;;;5035526;28;20410;-85
2021/11/16 04:11:32;;;;;;;22.00;10.82;;;;;13.10;102291.00;;;;5044067;28;20223;-85
2021/11/16 04:13:59;;;;;;;19.85;10.98;;;;;13.10;102294.00;;;;5036071;28;20215;-85
2021/11/16 04:16:26;;;;;;;16.95;9.80;;;;;13.10;102298.00;;;;5040888;28;20202;-85
2021/11/16 04:18:54;;;;;;;20.50;10.68;;;;;13.10;102305.00;;;;5047212;28;20199;-85
2021/11/16 04:21:21;;;;;;;19.27;10.73;;;;;13.10;102305.00;;;;5041666;28;20207;-85
2021/11/16 04:23:50;;;;;;;19.67;10.32;;;;;13.10;102297.00;;;;5038564;28;20199;-85
2021/11/16 04:26:17;;;;;;;19.00;9.65;;;;;13.10;102303.00;;;;5041355;28;20686;-84
2021/11/16 04:28:44;;;;;;;21.23;10.20;;;;;13.10;102300.00;;;;5040170;28;20188;-85
2021/11/16 04:31:11;;;;;;;18.63;10.18;;;;;13.10;102298.00;;;;5034904;28;20593;-85
2021/11/16 04:33:39;;;;;;;23.60;10.43;;;;;13.10;102300.00;;;;5040711;28;20199;-86
2021/11/16 04:36:07;;;;;;;17.30;10.18;;;;;13.10;102296.00;;;;5034486;28;20200;-84
2021/11/16 04:38:35;;;;;;;20.77;10.52;;;;;13.10;102290.00;;;;5036944;28;20569;-85
2021/11/16 04:41:04;;;;;;;18.70;10.48;;;;;13.10;102286.00;;;;5040685;28;20200;-85
2021/11/16 04:43:32;;;;;;;18.17;9.50;;;;;13.10;102291.00;;;;5048400;28;20576;-85
2021/11/16 04:46:04;;;;;;;20.50;10.60;;;;;13.10;102292.00;;;;5051546;28;20207;-86
2021/11/16 04:48:47;;;;;;;21.17;11.23;;;;;13.10;102296.00;;;;5040328;28;20202;-85
2021/11/16 04:54:25;;;;;;;22.25;10.55;;;;;13.10;102290.00;;;;5025188;28;20244;-85
2021/11/16 05:02:37;;;;;;;18.65;9.98;;;;;13.10;102287.00;;;;5048959;28;20254;-85
2021/11/16 05:05:09;;;;;;;17.05;9.02;;;;;13.10;102286.00;;;;5050110;28;20218;-84
2021/11/16 05:07:37;;;;;;;21.15;10.80;;;;;13.10;102283.00;;;;5040511;28;21025;-86
2021/11/16 05:10:06;;;;;;;17.63;9.73;;;;;13.10;102292.00;;;;5045173;28;20204;-85
2021/11/16 05:12:36;;;;;;;20.65;10.13;;;;;13.10;102288.00;;;;5044207;28;20577;-85
2021/11/16 05:15:10;;;;;;;19.45;10.85;;;;;13.10;102292.00;;;;5032870;28;20193;-86
2021/11/16 05:17:38;;;;;;;19.50;10.05;;;;;13.10;102300.00;;;;5034253;28;20198;-85
2021/11/16 05:20:06;;;;;;;21.60;10.10;;;;;13.10;102293.00;;;;5044963;28;20207;-86
2021/11/16 05:22:34;;;;;;;19.52;10.82;;;;;13.10;102284.00;;;;5044595;28;20246;-85
2021/11/16 05:25:02;;;;;;;23.52;11.32;;;;;13.10;102281.00;;;;5039291;28;20684;-86
2021/11/16 05:27:29;;;;;;;21.40;11.02;;;;;13.10;102283.00;;;;5035766;28;20206;-86
2021/11/16 05:29:59;;;;;;;19.20;9.73;;;;;13.10;102282.00;;;;5033664;28;20204;-85
2021/11/16 05:32:26;;;;;;;22.98;10.23;;;;;13.10;102280.00;;;;5034375;28;20234;-85
2021/11/16 05:34:53;;;;;;;20.52;10.10;;;;;13.10;102279.00;;;;5041404;28;20199;-85
2021/11/16 05:37:21;;;;;;;20.45;10.27;;;;;13.10;102278.00;;;;5037430;28;20200;-85
2021/11/16 05:39:48;;;;;;;21.35;11.63;;;;;13.10;102280.00;;;;5041244;28;20675;-83
2021/11/16 05:42:18;;;;;;;20.48;10.88;;;;;13.10;102279.00;;;;5038683;28;20207;-83
2021/11/16 05:44:45;;;;;;;21.42;10.80;;;;;13.10;102278.00;;;;5042488;28;20620;-83
2021/11/16 05:47:14;;;;;;;21.23;11.05;;;;;13.00;102271.00;;;;5034746;28;20569;-82
2021/11/16 05:49:42;;;;;;;20.95;10.88;;;;;13.10;102275.00;;;;5037075;28;20804;-84
2021/11/16 05:52:09;;;;;;;23.27;11.20;;;;;13.10;102277.00;;;;5034407;28;20227;-83
2021/11/16 05:54:36;;;;;;;22.58;12.07;;;;;13.10;102276.00;;;;5033994;28;20200;-84
2021/11/16 05:57:07;;;;;;;23.17;11.65;;;;;13.10;102284.00;;;;5045670;28;20192;-83
2021/11/16 05:59:34;;;;;;;24.42;12.02;;;;;13.10;102275.00;;;;5041698;28;20228;-84
2021/11/16 06:02:03;;;;;;;25.17;12.02;;;;;13.00;102275.00;;;;5036888;28;20196;-84
2021/11/16 06:04:34;;;;;;;21.10;10.90;;;;;13.00;102275.00;;;;5032065;28;20200;-83
2021/11/16 06:07:02;;;;;;;20.42;11.38;;;;;13.00;102275.00;;;;5036002;28;20679;-84
2021/11/16 06:09:31;;;;;;;22.55;11.25;;;;;13.00;102277.00;;;;5037324;28;20277;-84
2021/11/16 06:11:58;;;;;;;22.50;11.30;;;;;13.10;102275.00;;;;5040885;28;20286;-84
2021/11/16 06:14:26;;;;;;;25.50;11.30;;;;;13.00;102272.00;;;;5046467;28;20199;-82
2021/11/16 06:16:54;;;;;;;26.13;12.65;;;;;13.10;102274.00;;;;5047318;28;20196;-82
2021/11/16 06:19:24;;;;;;;20.65;10.57;;;;;13.10;102270.00;;;;5033738;28;20573;-84
2021/11/16 06:21:54;;;;;;;23.45;11.90;;;;;13.00;102277.00;;;;5049228;28;20223;-85
2021/11/16 06:24:21;;;;;;;24.95;12.80;;;;;13.10;102273.00;;;;5037825;28;20204;-81
2021/11/16 06:26:49;;;;;;;25.55;12.88;;;;;13.10;102279.00;;;;5035083;28;20195;-82
2021/11/16 06:29:16;;;;;;;24.65;12.27;;;;;13.10;102274.00;;;;5033885;28;20211;-83
2021/11/16 06:31:43;;;;;;;25.92;12.43;;;;;13.10;102278.00;;;;5033033;28;20228;-82
2021/11/16 06:34:13;;;;;;;25.08;12.77;;;;;13.10;102274.00;;;;5038360;28;20207;-84
2021/11/16 06:36:42;;;;;;;25.02;13.18;;;;;13.10;102266.00;;;;5036344;28;20195;-82
2021/11/16 06:39:13;;;;;;;25.65;13.07;;;;;13.00;102277.00;;;;5037967;28;20195;-84
2021/11/16 06:41:42;;;;;;;22.42;11.35;;;;;13.10;102270.00;;;;5038873;28;20204;-83
2021/11/16 06:44:10;;;;;;;22.83;12.20;;;;;13.10;102265.00;;;;5039281;28;20562;-82
2021/11/16 06:46:38;;;;;;;24.73;13.27;;;;;13.10;102265.00;;;;5047583;28;20202;-82
2021/11/16 06:49:08;;;;;;;23.52;12.50;;;;;13.10;102263.00;;;;5044875;28;20208;-82
2021/11/16 06:51:38;;;;;;;24.85;13.32;;;;;13.00;102265.00;;;;5033906;28;20231;-83
2021/11/16 06:54:07;;;;;;;25.27;14.68;;;;;13.00;102258.00;;;;5038020;28;20204;-82
2021/11/16 06:56:36;;;;;;;26.25;12.60;;;;;13.00;102261.00;;;;5036761;28;20202;-81
2021/11/16 06:59:04;;;;;;;25.67;12.55;;;;;13.00;102267.00;;;;5040377;28;20207;-84
2021/11/16 07:01:33;;;;;;;23.70;11.52;;;;;13.00;102268.00;;;;5043688;28;20195;-82
2021/11/16 07:04:05;;;;;;;28.20;13.38;;;;;13.00;102266.00;;;;5049404;28;20195;-82
2021/11/16 07:06:32;;;;;;;23.45;12.05;;;;;13.00;102259.00;;;;5045510;28;20279;-82
2021/11/16 07:09:00;;;;;;;22.20;12.23;;;;;13.00;102272.00;;;;5034567;28;20199;-82
2021/11/16 07:11:27;;;;;;;22.48;11.82;;;;;13.00;102268.00;;;;5038223;28;20231;-82
2021/11/16 07:14:01;;;;;;;25.52;11.90;;;;;13.00;102271.00;;;;5035437;28;20609;-82
2021/11/16 07:16:32;;;;;;;22.00;11.05;;;;;13.00;102274.00;;;;5047796;28;20261;-81
2021/11/16 07:19:01;;;;;;;26.23;11.68;;;;;13.00;102270.00;;;;5046627;28;20239;-82
2021/11/16 07:21:41;;;;;;;26.30;13.00;;;;;13.00;102276.00;;;;5035789;28;20196;-82
2021/11/16 07:24:11;;;;;;;24.23;12.10;;;;;13.00;102270.00;;;;5038690;28;20195;-83
2021/11/16 07:26:41;;;;;;;25.00;12.98;;;;;13.00;102274.00;;;;5036455;28;20589;-82
2021/11/16 07:29:11;;;;;;;25.60;12.85;;;;;13.00;102275.00;;;;5044140;28;20204;-82
2021/11/16 07:31:41;;;;;;;29.02;13.10;;;;;13.10;102280.00;;;;5045170;28;20309;-83
2021/11/16 07:34:13;;;;;;;24.08;12.02;;;;;13.10;102269.00;;;;5031482;28;20200;-84
2021/11/16 07:36:40;;;;;;;24.70;12.60;;;;;13.10;102271.00;;;;5036961;28;20242;-84
2021/11/16 07:39:08;;;;;;;23.38;12.40;;;;;13.10;102274.00;;;;5038274;28;20200;-84
2021/11/16 07:41:35;;;;;;;27.02;12.55;;;;;13.10;102272.00;;;;5046763;28;20250;-83
2021/11/16 07:44:14;;;;;;;26.10;12.68;;;;;13.00;102274.00;;;;5049066;28;20195;-83
2021/11/16 07:46:53;;;;;;;23.20;12.68;;;;;13.00;102271.00;;;;5033146;28;20204;-83
2021/11/16 07:49:21;;;;;;;24.92;13.02;;;;;13.10;102271.00;;;;5052231;28;20195;-84
2021/11/16 07:51:50;;;;;;;25.90;13.18;;;;;13.10;102268.00;;;;5051456;28;20242;-83
2021/11/16 07:54:22;;;;;;;24.15;12.25;;;;;13.00;102267.00;;;;5049310;28;20584;-83
2021/11/16 07:56:50;;;;;;;24.95;12.18;;;;;13.10;102268.00;;;;5045764;28;20203;-83
2021/11/16 07:59:22;;;;;;;24.40;11.95;;;;;13.00;102265.00;;;;5052133;28;20203;-84
2021/11/16 08:01:57;;;;;;;28.42;14.02;;;;;13.00;102268.00;;;;5045694;28;20215;-83
2021/11/16 08:04:32;;;;;;;26.63;12.82;;;;;13.00;102261.00;;;;5039326;28;20213;-84
2021/11/16 08:07:08;;;;;;;24.95;12.23;;;;;13.00;102269.00;;;;5051325;28;20195;-81
2021/11/16 08:09:46;;;;;;;22.35;11.55;;;;;13.00;102271.00;;;;5042792;28;20550;-82
2021/11/16 08:12:25;;;;;;;23.42;11.82;;;;;13.00;102265.00;;;;5047024;28;20226;-83
2021/11/16 08:15:01;;;;;;;24.63;12.30;;;;;13.00;102267.00;;;;5037930;28;20219;-83
2021/11/16 08:17:31;;;;;;;21.45;11.55;;;;;13.00;102266.00;;;;5042397;28;20204;-83
2021/11/16 08:20:00;;;;;;;22.33;12.75;;;;;13.00;102276.00;;;;5040230;28;20196;-83
2021/11/16 08:22:28;;;;;;;26.55;13.75;;;;;13.00;102276.00;;;;5041858;28;20222;-83
2021/11/16 08:24:57;;;;;;;24.90;12.00;;;;;13.00;102271.00;;;;5044095;28;20666;-82
2021/11/16 08:27:28;;;;;;;22.92;11.70;;;;;13.00;102267.00;;;;5039230;28;20267;-83
2021/11/16 08:30:05;;;;;;;20.50;10.05;;;;;13.00;102268.00;;;;5045664;28;20199;-82
2021/11/16 08:32:38;;;;;;;22.60;11.90;;;;;13.10;102277.00;;;;5043457;28;20234;-82
2021/11/16 08:35:12;;;;;;;24.60;11.32;;;;;13.00;102265.00;;;;5046977;28;20195;-83
2021/11/16 08:37:41;;;;;;;23.67;11.52;;;;;13.10;102269.00;;;;5050410;28;20195;-83
2021/11/16 08:40:11;;;;;;;24.02;12.23;;;;;13.10;102263.00;;;;5042323;28;20196;-82
2021/11/16 08:42:42;;;;;;;25.10;12.05;;;;;13.10;102266.00;;;;5043087;28;20200;-83
2021/11/16 08:45:13;;;;;;;27.30;12.70;;;;;13.10;102257.00;;;;5041411;28;20196;-82
2021/11/16 08:47:44;;;;;;;23.73;11.73;;;;;13.10;102259.00;;;;5042330;28;20568;-82
2021/11/16 08:50:19;;;;;;;27.33;12.73;;;;;13.00;102267.00;;;;5047732;28;20662;-83
2021/11/16 08:52:47;;;;;;;22.33;11.15;;;;;13.10;102263.00;;;;5043462;28;20727;-83
2021/11/16 08:55:19;;;;;;;25.42;12.65;;;;;13.00;102262.00;;;;5039831;28;20188;-83
2021/11/16 08:57:48;;;;;;;20.48;11.93;;;;;13.10;102265.00;;;;5042343;28;20603;-83
2021/11/16 09:00:20;;;;;;;22.48;11.27;;;;;13.00;102260.00;;;;5038526;28;20565;-83
2021/11/16 09:02:49;;;;;;;21.95;10.40;;;;;13.10;102260.00;;;;5046640;28;20688;-83
2021/11/16 09:05:19;;;;;;;21.52;10.63;;;;;13.10;102252.00;;;;5035431;28;20192;-83
2021/11/16 09:07:54;;;;;;;22.60;9.90;;;;;13.00;102253.00;;;;5039453;28;20201;-82
2021/11/16 09:10:31;;;;;;;18.30;9.80;;;;;13.10;102246.00;;;;5041196;28;20231;-82
2021/11/16 09:13:00;;;;;;;33.10;11.55;;;;;13.10;102245.00;;;;5044217;28;20226;-82
2021/11/16 09:15:34;;;;;;;22.55;10.95;;;;;13.10;102244.00;;;;5041315;28;20200;-82
2021/11/16 09:18:13;;;;;;;19.67;9.90;;;;;13.00;102237.00;;;;5043871;28;20416;-82
2021/11/16 09:20:42;;;;;;;21.85;10.57;;;;;13.10;102236.00;;;;5043713;28;20199;-82
2021/11/16 09:23:19;;;;;;;19.33;10.50;;;;;13.10;102235.00;;;;5044200;28;20212;-82
2021/11/16 09:25:51;;;;;;;21.98;10.93;;;;;13.10;102233.00;;;;5040828;28;20566;-84
2021/11/16 09:31:21;;;;;;;21.83;10.98;;;;;13.00;102224.00;;;;5038756;28;20213;-84
2021/11/16 09:33:52;;;;;;;21.20;10.00;;;;;13.10;102236.00;;;;5041428;28;20196;-83
2021/11/16 09:36:25;;;;;;;21.92;9.82;;;;;13.10;102232.00;;;;5043759;28;20216;-83
2021/11/16 09:38:56;;;;;;;18.10;10.50;;;;;13.10;102230.00;;;;5053492;28;20213;-83
2021/11/16 09:41:33;;;;;;;23.65;11.63;;;;;13.10;102226.00;;;;5039505;28;20204;-82
2021/11/16 09:44:05;;;;;;;24.25;11.10;;;;;13.10;102228.00;;;;5037200;28;20302;-83
2021/11/16 09:46:44;;;;;;;23.38;10.52;;;;;13.00;102227.00;;;;5037651;28;20228;-83
2021/11/16 09:49:14;;;;;;;25.73;11.85;;;;;13.10;102221.00;;;;5041324;28;20199;-80
2021/11/16 09:51:54;;;;;;;27.48;11.85;;;;;13.10;102220.00;;;;5035413;28;20228;-80
2021/11/16 09:54:21;;;;;;;23.48;11.57;;;;;13.10;102220.00;;;;5040486;28;20191;-82
2021/11/16 09:57:01;;;;;;;24.27;10.82;;;;;13.10;102217.00;;;;5042235;28;20196;-81
2021/11/16 09:59:29;;;;;;;19.55;10.77;;;;;13.20;102217.00;;;;5045969;28;20203;-82
2021/11/16 10:01:58;;;;;;;23.98;11.32;;;;;13.20;102224.00;;;;5044429;28;20207;-82
2021/11/16 10:04:30;;;;;;;22.08;10.73;;;;;13.20;102223.00;;;;5043896;28;20821;-82
2021/11/16 10:06:59;;;;;;;23.80;11.57;;;;;13.20;102214.00;;;;5036641;28;20616;-81
2021/11/16 10:09:27;;;;;;;24.00;10.75;;;;;13.20;102213.00;;;;5037257;28;20234;-82
2021/11/16 10:11:55;;;;;;;22.83;11.27;;;;;13.20;102210.00;;;;5042331;28;20231;-82
2021/11/16 10:14:23;;;;;;;18.67;8.98;;;;;13.20;102217.00;;;;5051197;28;20212;-83
2021/11/16 10:16:52;;;;;;;19.90;10.48;;;;;13.20;102216.00;;;;5049344;28;20569;-81
2021/11/16 10:19:21;;;;;;;20.40;9.75;;;;;13.20;102215.00;;;;5051151;28;20220;-82
2021/11/16 10:21:49;;;;;;;19.13;9.15;;;;;13.20;102206.00;;;;5043546;28;20216;-82
2021/11/16 10:24:31;;;;;;;16.42;8.75;;;;;13.20;102212.00;;;;5049065;28;20192;-82
2021/11/16 10:27:22;;;;;;;16.65;7.43;;;;;13.20;102203.00;;;;5036965;28;20203;-81
2021/11/16 10:30:14;;;;;;;16.58;7.60;;;;;13.20;102213.00;;;;5033851;28;20204;-82
2021/11/16 10:32:43;;;;;;;18.98;9.13;;;;;13.30;102206.00;;;;5042584;28;20215;-82
2021/11/16 10:35:15;;;;;;;18.25;9.40;;;;;13.30;102208.00;;;;5039129;28;20196;-82
2021/11/16 10:37:49;;;;;;;18.05;9.85;;;;;13.20;102205.00;;;;5044589;28;20193;-82
2021/11/16 10:40:17;;;;;;;20.15;9.15;;;;;13.30;102205.00;;;;5036567;28;20196;-82
2021/11/16 10:42:48;;;;;;;23.17;10.63;;;;;13.30;102197.00;;;;5036902;28;20219;-82
2021/11/16 10:45:18;;;;;;;19.58;10.15;;;;;13.30;102200.00;;;;5030887;28;20199;-81
2021/11/16 10:47:46;;;;;;;22.05;10.05;;;;;13.30;102199.00;;;;5034286;28;20203;-82
2021/11/16 10:50:19;;;;;;;17.85;8.40;;;;;13.30;102195.00;;;;5037748;28;20200;-84
2021/11/16 10:52:57;;;;;;;16.08;7.43;;;;;13.20;102192.00;;;;5036539;28;20232;-84
2021/11/16 10:55:34;;;;;;;12.80;6.47;;;;;13.20;102196.00;;;;5035229;28;20200;-84
2021/11/16 10:58:05;;;;;;;13.23;7.10;;;;;13.30;102187.00;;;;5031321;28;20218;-84
2021/11/16 11:00:36;;;;;;;14.50;7.97;;;;;13.30;102186.00;;;;5035871;28;20212;-84
2021/11/16 11:03:17;;;;;;;16.45;8.90;;;;;13.20;102179.00;;;;5027209;28;20678;-84
2021/11/16 11:05:46;;;;;;;19.00;9.18;;;;;13.30;102180.00;;;;5028229;28;20207;-84
2021/11/16 11:08:27;;;;;;;19.23;8.88;;;;;13.30;102176.00;;;;5034592;28;20203;-84
2021/11/16 11:10:55;;;;;;;17.60;7.95;;;;;13.30;102173.00;;;;5041320;28;20203;-84
2021/11/16 11:13:25;;;;;;;20.65;8.75;;;;;13.30;102171.00;;;;5037844;28;20747;-84
2021/11/16 11:15:53;;;;;;;18.08;9.68;;;;;13.30;102166.00;;;;5038340;28;20677;-84
2021/11/16 11:18:35;;;;;;;19.75;10.15;;;;;13.20;102164.00;;;;5036397;28;20697;-84
2021/11/16 11:21:06;;;;;;;15.05;7.93;;;;;13.30;102156.00;;;;5030220;28;20193;-84
2021/11/16 11:23:40;;;;;;;17.35;8.73;;;;;13.20;102162.00;;;;5038427;28;20223;-84
2021/11/16 11:26:31;;;;;;;16.98;8.82;;;;;13.20;102161.00;;;;5033310;28;20875;-85
2021/11/16 11:29:20;;;;;;;20.80;10.15;;;;;13.30;102162.00;;;;5038832;28;20210;-85
2021/11/16 11:31:52;;;;;;;17.55;8.13;;;;;13.30;102156.00;;;;5035037;28;20204;-84
2021/11/16 11:34:29;;;;;;;16.85;8.82;;;;;13.30;102153.00;;;;5045803;28;20223;-84
2021/11/16 11:37:04;;;;;;;15.40;7.80;;;;;13.30;102145.00;;;;5034494;28;20208;-84
2021/11/16 11:39:32;;;;;;;18.25;7.93;;;;;13.30;102148.00;;;;5035365;28;20198;-85
2021/11/16 11:42:00;;;;;;;17.67;9.05;;;;;13.30;102148.00;;;;5044918;28;20561;-84
2021/11/16 11:44:30;;;;;;;15.65;7.93;;;;;13.30;102141.00;;;;5037854;28;20191;-85
2021/11/16 11:47:00;;;;;;;18.83;9.07;;;;;13.30;102139.00;;;;5038780;28;20200;-84
2021/11/16 11:49:29;;;;;;;16.40;7.97;;;;;13.30;102135.00;;;;5039382;28;20201;-84
2021/11/16 11:51:59;;;;;;;12.70;6.72;;;;;13.40;102133.00;;;;5042139;28;20223;-85
2021/11/16 11:54:28;;;;;;;15.48;8.73;;;;;13.40;102139.00;;;;5042319;28;20231;-84
2021/11/16 11:56:56;;;;;;;15.38;8.20;;;;;13.40;102137.00;;;;5035448;28;20208;-84
2021/11/16 11:59:25;;;;;;;15.23;8.23;;;;;13.40;102141.00;;;;5033519;28;20210;-84
2021/11/16 12:01:54;;;;;;;18.58;7.70;;;;;13.40;102138.00;;;;5036314;28;20195;-84
2021/11/16 12:04:22;;;;;;;15.13;8.20;;;;;13.40;102143.00;;;;5035086;28;20722;-84
2021/11/16 12:06:52;;;;;;;15.77;7.50;;;;;13.40;102142.00;;;;5033284;28;20204;-84
2021/11/16 12:09:20;;;;;;;13.45;7.82;;;;;13.40;102129.00;;;;5035204;28;20697;-83
2021/11/16 12:11:49;;;;;;;19.33;8.30;;;;;13.40;102129.00;;;;5034341;28;20214;-83
2021/11/16 12:14:33;;;;;;;15.02;7.43;;;;;13.30;102115.00;;;;5035624;28;20223;-84
2021/11/16 12:17:04;;;;;;;15.75;7.38;;;;;13.40;102115.00;;;;5029651;28;20784;-85